createdAt,value
2023-02-11T00:01:29.119Z,52.67
2023-02-11T00:04:00.090Z,45.90
2023-02-11T00:06:31.746Z,50.30
2023-02-11T00:09:01.995Z,44.23
2023-02-11T00:11:32.900Z,49.83
2023-02-11T00:14:04.211Z,48.37
2023-02-11T00:16:37.179Z,51.10
2023-02-11T00:19:08.054Z,48.80
2023-02-11T00:21:38.299Z,55.43
2023-02-11T00:24:08.861Z,42.77
2023-02-11T00:26:39.027Z,48.43
2023-02-11T00:29:09.312Z,51.23
2023-02-11T00:31:41.958Z,41.23
2023-02-11T00:34:12.119Z,48.10
2023-02-11T00:36:42.099Z,49.57
2023-02-11T00:39:12.320Z,52.80
2023-02-11T00:41:42.322Z,47.90
2023-02-11T00:44:12.209Z,52.20
2023-02-11T00:46:45.835Z,49.00
2023-02-11T00:49:15.825Z,45.90
2023-02-11T00:51:45.731Z,45.70
2023-02-11T00:54:15.817Z,42.73
2023-02-11T00:56:46.504Z,45.87
2023-02-11T00:59:16.394Z,43.47
2023-02-11T01:01:49.943Z,48.33
2023-02-11T01:04:19.892Z,47.73
2023-02-11T01:06:49.978Z,44.33
2023-02-11T01:09:21.201Z,46.07
2023-02-11T01:11:51.107Z,45.97
2023-02-11T01:14:21.118Z,46.97
2023-02-11T01:16:56.290Z,44.63
2023-02-11T01:19:26.175Z,42.23
2023-02-11T01:21:56.065Z,42.63
2023-02-11T01:24:25.952Z,44.93
2023-02-11T01:26:55.856Z,45.27
2023-02-11T01:29:27.480Z,45.77
2023-02-11T01:32:00.633Z,43.23
2023-02-11T01:34:31.042Z,45.47
2023-02-11T01:37:01.664Z,50.70
2023-02-11T01:39:35.533Z,43.13
2023-02-11T01:42:05.574Z,39.93
2023-02-11T01:44:38.294Z,46.57
2023-02-11T01:47:10.870Z,39.30
2023-02-11T01:49:45.175Z,46.47
2023-02-11T01:52:20.198Z,43.10
2023-02-11T01:55:05.607Z,42.83
2023-02-11T01:57:38.104Z,41.43
2023-02-11T02:00:13.105Z,44.83
2023-02-11T02:02:55.174Z,47.00
2023-02-11T02:05:36.149Z,39.60
2023-02-11T02:08:13.542Z,41.63
2023-02-11T02:10:46.293Z,45.10
2023-02-11T02:13:17.518Z,48.90
2023-02-11T02:15:52.938Z,42.70
2023-02-11T02:18:38.827Z,42.80
2023-02-11T02:21:50.484Z,50.73
2023-02-11T02:24:59.941Z,41.87
2023-02-11T02:27:40.805Z,42.53
2023-02-11T02:30:41.110Z,49.43
2023-02-11T02:33:37.860Z,46.30
2023-02-11T02:36:15.504Z,45.50
2023-02-11T02:38:51.541Z,39.10
2023-02-11T02:41:26.408Z,41.77
2023-02-11T02:43:56.886Z,41.10
2023-02-11T02:46:29.591Z,48.57
2023-02-11T02:49:03.123Z,41.20
2023-02-11T02:51:52.969Z,42.73
2023-02-11T02:55:01.826Z,43.30
2023-02-11T02:57:47.397Z,34.90
2023-02-11T03:00:26.761Z,37.03
2023-02-11T03:03:12.762Z,31.07
2023-02-11T03:05:54.703Z,37.03
2023-02-11T03:08:32.384Z,40.23
2023-02-11T03:11:04.233Z,39.70
2023-02-11T03:13:37.056Z,43.23
2023-02-11T03:16:12.053Z,37.70
2023-02-11T03:18:45.054Z,45.40
2023-02-11T03:21:19.916Z,42.03
2023-02-11T03:23:56.457Z,39.50
2023-02-11T03:26:32.837Z,42.97
2023-02-11T03:29:07.692Z,49.07
2023-02-11T03:31:44.632Z,44.40
2023-02-11T03:34:18.899Z,46.27
2023-02-11T03:36:57.069Z,44.00
2023-02-11T03:39:32.342Z,47.70
2023-02-11T03:42:03.444Z,52.60
2023-02-11T03:44:44.963Z,50.13
2023-02-11T03:47:16.743Z,45.50
2023-02-11T03:49:50.553Z,49.17
2023-02-11T03:52:24.756Z,38.53
2023-02-11T03:54:59.776Z,53.40
2023-02-11T03:57:29.885Z,38.77
2023-02-11T04:00:01.553Z,34.73
2023-02-11T04:02:42.562Z,39.80
2023-02-11T04:05:17.453Z,39.50
2023-02-11T04:07:52.879Z,36.00
2023-02-11T04:10:23.023Z,43.00
2023-02-11T04:12:53.279Z,49.00
2023-02-11T04:15:23.410Z,44.90
2023-02-11T04:17:53.622Z,37.70
2023-02-11T04:20:23.751Z,36.03
2023-02-11T04:22:56.248Z,38.27
2023-02-11T04:25:26.321Z,37.23
2023-02-11T04:27:56.332Z,45.90
2023-02-11T04:30:27.967Z,47.03
2023-02-11T04:32:57.934Z,39.77
2023-02-11T04:35:27.827Z,42.50
2023-02-11T04:38:00.334Z,40.47
2023-02-11T04:40:30.643Z,39.07
2023-02-11T04:43:00.655Z,38.37
2023-02-11T04:45:30.852Z,36.73
2023-02-11T04:48:01.024Z,40.27
2023-02-11T04:50:31.129Z,45.27
2023-02-11T04:53:03.582Z,44.90
2023-02-11T04:55:33.676Z,32.67
2023-02-11T04:58:03.624Z,42.10
2023-02-11T05:00:33.580Z,42.40
2023-02-11T05:03:03.474Z,37.30
2023-02-11T05:05:33.353Z,38.37
2023-02-11T05:08:05.984Z,36.27
2023-02-11T05:10:36.286Z,34.60
2023-02-11T05:13:06.348Z,40.97
2023-02-11T05:15:36.257Z,40.77
2023-02-11T05:18:06.336Z,32.20
2023-02-11T05:20:36.254Z,33.30
2023-02-11T05:23:08.778Z,35.93
2023-02-11T05:25:39.017Z,35.53
2023-02-11T05:28:09.680Z,38.00
2023-02-11T05:30:39.643Z,33.47
2023-02-11T05:33:09.641Z,33.97
2023-02-11T05:35:39.552Z,41.47
2023-02-11T05:38:12.085Z,34.13
2023-02-11T05:40:42.071Z,35.80
2023-02-11T05:43:12.113Z,33.57
2023-02-11T05:45:42.208Z,35.67
2023-02-11T05:48:12.161Z,34.10
2023-02-11T05:50:42.125Z,36.83
2023-02-11T05:53:14.965Z,32.27
2023-02-11T05:55:45.267Z,32.87
2023-02-11T05:58:15.484Z,32.80
2023-02-11T06:00:45.424Z,32.23
2023-02-11T06:03:15.649Z,29.97
2023-02-11T06:05:46.142Z,33.63
2023-02-11T06:08:18.788Z,32.73
2023-02-11T06:10:49.330Z,30.40
2023-02-11T06:13:19.858Z,35.50
2023-02-11T06:15:59.142Z,33.07
2023-02-11T06:18:29.622Z,34.03
2023-02-11T06:21:00.104Z,30.93
2023-02-11T06:23:32.644Z,42.23
2023-02-11T06:26:05.339Z,30.77
2023-02-11T06:28:35.972Z,33.53
2023-02-11T06:31:09.808Z,31.53
2023-02-11T06:33:40.117Z,36.47
2023-02-11T06:36:16.083Z,38.10
2023-02-11T06:38:49.366Z,32.50
2023-02-11T06:41:21.953Z,30.43
2023-02-11T06:43:52.454Z,36.43
2023-02-11T06:46:22.828Z,31.40
2023-02-11T06:48:53.140Z,29.33
2023-02-11T06:51:23.358Z,27.70
2023-02-11T06:53:56.117Z,34.07
2023-02-11T06:56:27.475Z,32.37
2023-02-11T06:58:58.180Z,27.83
2023-02-11T07:01:28.809Z,35.93
2023-02-11T07:03:59.527Z,34.80
2023-02-11T07:06:30.602Z,33.53
2023-02-11T07:09:03.583Z,36.23
2023-02-11T07:11:34.672Z,34.33
2023-02-11T07:14:08.382Z,36.47
2023-02-11T07:16:38.720Z,32.53
2023-02-11T07:19:08.882Z,36.73
2023-02-11T07:21:39.095Z,31.83
2023-02-11T07:24:13.007Z,29.70
2023-02-11T07:26:44.711Z,36.88
2023-02-11T07:29:14.920Z,39.20
2023-02-11T07:31:45.319Z,36.20
2023-02-11T07:34:15.619Z,39.80
2023-02-11T07:36:46.359Z,44.87
2023-02-11T07:39:20.072Z,48.30
2023-02-11T07:41:50.437Z,39.28
2023-02-11T07:44:20.974Z,36.43
2023-02-11T07:46:51.482Z,35.70
2023-02-11T07:49:21.837Z,40.23
2023-02-11T07:51:52.001Z,33.70
2023-02-11T07:54:24.841Z,40.90
2023-02-11T07:56:55.129Z,38.43
2023-02-11T07:59:25.413Z,31.83
2023-02-11T08:01:55.650Z,32.83
2023-02-11T08:04:25.846Z,33.97
2023-02-11T08:06:59.275Z,35.93
2023-02-11T08:09:34.448Z,34.77
2023-02-11T08:12:04.797Z,22.63
2023-02-11T08:14:35.346Z,31.43
2023-02-11T08:17:05.510Z,31.70
2023-02-11T08:19:35.701Z,31.23
2023-02-11T08:22:05.879Z,33.13
2023-02-11T08:24:38.466Z,33.20
2023-02-11T08:27:08.681Z,32.13
2023-02-11T08:29:39.003Z,23.30
2023-02-11T08:32:09.275Z,31.73
2023-02-11T08:34:39.526Z,35.03
2023-02-11T08:37:09.688Z,28.63
2023-02-11T08:39:42.474Z,29.87
2023-02-11T08:42:12.614Z,34.17
2023-02-11T08:44:43.107Z,26.77
2023-02-11T08:47:13.338Z,28.03
2023-02-11T08:49:43.735Z,26.53
2023-02-11T08:52:13.954Z,30.13
2023-02-11T08:54:47.146Z,25.03
2023-02-11T08:57:17.390Z,31.67
2023-02-11T08:59:47.685Z,29.63
2023-02-11T09:02:18.361Z,25.47
2023-02-11T09:04:48.797Z,26.90
2023-02-11T09:07:19.206Z,31.07
2023-02-11T09:09:51.713Z,29.40
2023-02-11T09:12:21.997Z,24.13
2023-02-11T09:14:52.279Z,27.33
2023-02-11T09:17:22.438Z,21.90
2023-02-11T09:19:52.850Z,24.60
2023-02-11T09:22:23.026Z,21.47
2023-02-11T09:24:55.485Z,24.63
2023-02-11T09:27:25.702Z,20.50
2023-02-11T09:29:55.834Z,28.45
2023-02-11T09:32:26.020Z,20.65
2023-02-11T09:34:56.208Z,23.33
2023-02-11T09:37:26.381Z,21.48
2023-02-11T09:39:59.182Z,25.65
2023-02-11T09:42:42.906Z,18.98
2023-02-11T09:45:18.666Z,20.30
2023-02-11T09:47:56.907Z,22.55
2023-02-11T09:50:31.838Z,22.45
2023-02-11T09:53:04.517Z,21.05
2023-02-11T09:55:39.760Z,22.35
2023-02-11T09:58:15.851Z,20.60
2023-02-11T10:00:51.283Z,23.80
2023-02-11T10:03:55.891Z,21.20
2023-02-11T10:06:44.422Z,22.67
2023-02-11T10:09:43.664Z,20.80
2023-02-11T10:12:28.354Z,24.58
2023-02-11T10:15:15.493Z,21.63
2023-02-11T10:17:58.922Z,23.73
2023-02-11T10:20:37.386Z,22.80
2023-02-11T10:23:16.505Z,18.60
2023-02-11T10:25:48.149Z,22.77
2023-02-11T10:28:24.741Z,20.48
2023-02-11T10:31:00.903Z,18.60
2023-02-11T10:33:34.266Z,20.63
2023-02-11T10:36:04.519Z,22.80
2023-02-11T10:38:36.485Z,20.20
2023-02-11T10:41:07.186Z,21.38
2023-02-11T10:43:40.203Z,23.10
2023-02-11T10:46:19.038Z,20.35
2023-02-11T10:48:52.924Z,26.48
2023-02-11T10:51:24.964Z,22.58
2023-02-11T10:54:19.628Z,20.92
2023-02-11T10:56:52.932Z,23.23
2023-02-11T10:59:31.403Z,22.33
2023-02-11T11:02:03.422Z,20.42
2023-02-11T11:04:41.698Z,23.27
2023-02-11T11:07:24.130Z,23.35
2023-02-11T11:09:56.793Z,24.08
2023-02-11T11:12:40.249Z,21.38
2023-02-11T11:15:22.874Z,19.65
2023-02-11T11:17:53.224Z,23.77
2023-02-11T11:20:27.417Z,17.48
2023-02-11T11:23:13.362Z,21.30
2023-02-11T11:25:47.086Z,25.38
2023-02-11T11:28:26.099Z,21.08
2023-02-11T11:30:59.862Z,22.77
2023-02-11T11:33:32.539Z,23.88
2023-02-11T11:36:09.412Z,22.75
2023-02-11T11:38:41.272Z,18.25
2023-02-11T11:41:23.703Z,23.73
2023-02-11T11:43:59.667Z,20.02
2023-02-11T11:46:35.244Z,23.55
2023-02-11T11:49:20.519Z,23.02
2023-02-11T11:52:01.416Z,24.80
2023-02-11T11:54:31.734Z,23.88
2023-02-11T11:57:06.021Z,24.70
2023-02-11T11:59:37.201Z,26.42
2023-02-11T12:02:38.200Z,22.23
2023-02-11T12:05:14.320Z,23.60
2023-02-11T12:08:03.869Z,23.73
2023-02-11T12:10:54.837Z,21.92
2023-02-11T12:13:36.632Z,24.50
2023-02-11T12:16:17.785Z,25.45
2023-02-11T12:19:15.648Z,26.23
2023-02-11T12:21:53.543Z,21.65
2023-02-11T12:24:37.723Z,22.67
2023-02-11T12:27:14.273Z,27.27
2023-02-11T12:29:58.240Z,23.75
2023-02-11T12:32:36.465Z,24.25
2023-02-11T12:35:28.318Z,21.55
2023-02-11T12:38:36.763Z,26.73
2023-02-11T12:41:17.941Z,27.30
2023-02-11T12:43:45.784Z,21.08
2023-02-11T12:46:44.015Z,24.85
2023-02-11T12:49:42.337Z,27.23
2023-02-11T12:52:35.328Z,24.80
2023-02-11T12:55:12.129Z,24.88
2023-02-11T12:57:44.497Z,24.88
2023-02-11T13:00:19.330Z,27.15
2023-02-11T13:02:55.229Z,24.15
2023-02-11T13:05:32.019Z,25.33
2023-02-11T13:08:08.348Z,23.88
2023-02-11T13:10:40.646Z,25.20
2023-02-11T13:13:20.904Z,22.33
2023-02-11T13:15:54.786Z,21.52
2023-02-11T13:18:49.346Z,22.55
2023-02-11T13:21:39.040Z,25.77
2023-02-11T13:24:27.837Z,22.20
2023-02-11T13:27:08.772Z,24.42
2023-02-11T13:29:58.359Z,25.75
2023-02-11T13:32:28.259Z,20.52
2023-02-11T13:35:00.653Z,24.05
2023-02-11T13:37:35.481Z,21.40
2023-02-11T13:40:10.194Z,25.42
2023-02-11T13:42:52.427Z,19.88
2023-02-11T13:45:33.333Z,20.50
2023-02-11T13:48:05.511Z,22.05
2023-02-11T13:50:40.508Z,24.60
2023-02-11T13:53:10.674Z,21.48
2023-02-11T13:55:45.338Z,21.92
2023-02-11T13:58:37.171Z,21.50
2023-02-11T14:01:07.335Z,21.98
2023-02-11T14:03:52.611Z,23.92
2023-02-11T14:06:40.780Z,23.88
2023-02-11T14:09:28.524Z,25.15
2023-02-11T14:12:26.169Z,25.02
2023-02-11T14:15:07.725Z,20.83
2023-02-11T14:17:38.032Z,21.45
2023-02-11T14:20:39.809Z,21.15
2023-02-11T14:23:10.296Z,25.67
2023-02-11T14:25:44.798Z,19.60
2023-02-11T14:28:24.456Z,24.58
2023-02-11T14:31:03.111Z,23.75
2023-02-11T14:33:55.881Z,24.35
2023-02-11T14:36:53.268Z,23.20
2023-02-11T14:39:40.350Z,22.48
2023-02-11T14:42:20.033Z,22.77
2023-02-11T14:44:54.994Z,20.95
2023-02-11T14:47:30.690Z,23.95
2023-02-11T14:50:00.622Z,23.15
2023-02-11T14:52:32.502Z,23.63
2023-02-11T14:55:30.205Z,21.00
2023-02-11T14:58:25.106Z,27.55
2023-02-11T15:01:01.720Z,21.95
2023-02-11T15:03:38.275Z,25.42
2023-02-11T15:06:15.639Z,28.92
2023-02-11T15:08:48.383Z,25.08
2023-02-11T15:11:22.107Z,22.52
2023-02-11T15:13:55.322Z,22.17
2023-02-11T15:16:30.507Z,23.80
2023-02-11T15:19:05.258Z,27.35
2023-02-11T15:21:37.302Z,23.30
2023-02-11T15:24:24.036Z,24.38
2023-02-11T15:27:00.109Z,25.50
2023-02-11T15:29:31.281Z,23.83
2023-02-11T15:32:17.028Z,23.33
2023-02-11T15:34:48.341Z,21.75
2023-02-11T15:37:23.528Z,19.55
2023-02-11T15:39:54.331Z,23.15
2023-02-11T15:42:27.210Z,26.33
2023-02-11T15:45:26.103Z,29.08
2023-02-11T15:48:01.933Z,20.60
2023-02-11T15:50:35.836Z,24.98
2023-02-11T15:53:18.533Z,19.38
2023-02-11T15:55:49.029Z,24.20
2023-02-11T15:58:19.041Z,23.50
2023-02-11T16:00:54.696Z,24.25
2023-02-11T16:03:28.867Z,22.67
2023-02-11T16:05:59.956Z,22.10
2023-02-11T16:08:32.950Z,23.35
2023-02-11T16:11:09.025Z,21.40
2023-02-11T16:13:49.001Z,22.70
2023-02-11T16:16:22.395Z,25.52
2023-02-11T16:19:06.184Z,21.33
2023-02-11T16:21:39.301Z,24.77
2023-02-11T16:24:10.921Z,25.40
2023-02-11T16:26:43.671Z,28.35
2023-02-11T16:29:16.439Z,24.90
2023-02-11T16:31:50.323Z,25.02
2023-02-11T16:34:24.897Z,22.15
2023-02-11T16:36:55.650Z,22.98
2023-02-11T16:39:25.761Z,26.30
2023-02-11T16:41:56.258Z,27.08
2023-02-11T16:44:26.145Z,24.88
2023-02-11T16:46:56.461Z,24.90
2023-02-11T16:49:32.589Z,28.55
2023-02-11T16:52:04.232Z,25.80
2023-02-11T16:54:34.462Z,23.85
2023-02-11T16:57:05.955Z,26.67
2023-02-11T16:59:35.907Z,24.77
2023-02-11T17:02:05.978Z,29.17
2023-02-11T17:04:38.669Z,19.90
2023-02-11T17:07:08.635Z,26.88
2023-02-11T17:09:38.518Z,33.00
2023-02-11T17:12:09.213Z,25.45
2023-02-11T17:14:39.269Z,26.38
2023-02-11T17:17:09.519Z,25.08
2023-02-11T17:19:42.634Z,27.63
2023-02-11T17:22:14.007Z,27.20
2023-02-11T17:24:43.992Z,26.17
2023-02-11T17:27:15.330Z,28.10
2023-02-11T17:29:45.378Z,25.88
2023-02-11T17:32:15.450Z,26.67
2023-02-11T17:34:48.238Z,26.63
2023-02-11T17:37:18.235Z,26.80
2023-02-11T17:39:48.108Z,24.40
2023-02-11T17:42:19.167Z,25.95
2023-02-11T17:44:49.258Z,23.98
2023-02-11T17:47:19.212Z,24.45
2023-02-11T17:49:51.822Z,28.85
2023-02-11T17:52:21.729Z,32.47
2023-02-11T17:54:51.645Z,26.25
2023-02-11T17:57:21.723Z,28.90
2023-02-11T17:59:51.771Z,28.60
2023-02-11T18:02:21.697Z,27.27
2023-02-11T18:04:57.607Z,35.40
2023-02-11T18:07:28.107Z,31.52
2023-02-11T18:09:58.064Z,27.38
2023-02-11T18:12:27.940Z,27.73
2023-02-11T18:14:58.348Z,37.17
2023-02-11T18:17:28.660Z,29.42
2023-02-11T18:20:03.641Z,28.52
2023-02-11T18:22:39.160Z,29.98
2023-02-11T18:25:10.312Z,27.67
2023-02-11T18:27:40.683Z,27.17
2023-02-11T18:30:11.908Z,28.90
2023-02-11T18:32:42.266Z,29.77
2023-02-11T18:35:16.063Z,30.25
2023-02-11T18:37:46.386Z,35.25
2023-02-11T18:40:17.761Z,30.75
2023-02-11T18:42:49.245Z,32.35
2023-02-11T18:45:19.571Z,30.35
2023-02-11T18:47:49.836Z,29.13
2023-02-11T18:50:22.900Z,29.80
2023-02-11T18:52:53.215Z,29.63
2023-02-11T18:55:25.827Z,28.50
2023-02-11T18:57:56.229Z,34.30
2023-02-11T19:00:26.757Z,28.45
2023-02-11T19:02:56.991Z,27.55
2023-02-11T19:05:33.402Z,29.20
2023-02-11T19:08:04.856Z,26.50
2023-02-11T19:10:35.040Z,32.28
2023-02-11T19:13:05.208Z,32.20
2023-02-11T19:15:35.943Z,31.45
2023-02-11T19:18:06.122Z,28.33
2023-02-11T19:20:38.954Z,29.08
2023-02-11T19:23:09.174Z,27.95
2023-02-11T19:25:39.720Z,26.23
2023-02-11T19:28:09.960Z,26.48
2023-02-11T19:30:40.229Z,26.90
2023-02-11T19:33:10.582Z,29.65
2023-02-11T19:35:43.504Z,27.33
2023-02-11T19:38:15.726Z,27.52
2023-02-11T19:40:45.994Z,33.78
2023-02-11T19:43:16.245Z,26.48
2023-02-11T19:45:46.461Z,27.25
2023-02-11T19:48:16.694Z,28.73
2023-02-11T19:50:49.520Z,26.48
2023-02-11T19:53:19.753Z,30.05
2023-02-11T19:55:50.219Z,25.13
2023-02-11T19:58:21.153Z,28.52
2023-02-11T20:00:51.390Z,26.92
2023-02-11T20:03:21.644Z,29.27
2023-02-11T20:05:54.311Z,30.45
2023-02-11T20:08:24.605Z,29.70
2023-02-11T20:10:54.885Z,24.55
2023-02-11T20:13:25.296Z,29.75
2023-02-11T20:15:55.666Z,25.48
2023-02-11T20:18:26.004Z,26.45
2023-02-11T20:21:00.287Z,32.88
2023-02-11T20:23:31.300Z,28.30
2023-02-11T20:26:01.475Z,31.63
2023-02-11T20:28:31.690Z,32.80
2023-02-11T20:31:02.444Z,34.33
2023-02-11T20:33:33.122Z,33.53
2023-02-11T20:36:08.849Z,33.22
2023-02-11T20:38:39.373Z,33.72
2023-02-11T20:41:13.950Z,31.98
2023-02-11T20:43:45.897Z,32.38
2023-02-11T20:46:16.990Z,28.63
2023-02-11T20:48:47.406Z,27.80
2023-02-11T20:51:22.008Z,35.00
2023-02-11T20:53:52.550Z,30.13
2023-02-11T20:56:23.584Z,33.35
2023-02-11T20:58:54.115Z,28.92
2023-02-11T21:01:25.819Z,36.28
2023-02-11T21:03:58.176Z,35.33
2023-02-11T21:06:34.576Z,30.35
2023-02-11T21:09:04.811Z,28.55
2023-02-11T21:11:35.188Z,27.73
2023-02-11T21:14:05.669Z,30.70
2023-02-11T21:16:35.894Z,31.92
2023-02-11T21:19:06.265Z,31.02
2023-02-11T21:21:39.931Z,26.70
2023-02-11T21:24:10.799Z,28.45
2023-02-11T21:26:41.417Z,34.67
2023-02-11T21:29:11.920Z,34.05
2023-02-11T21:31:42.991Z,28.92
2023-02-11T21:34:13.308Z,32.50
2023-02-11T21:36:45.983Z,31.08
2023-02-11T21:39:16.361Z,31.52
2023-02-11T21:41:46.714Z,35.22
2023-02-11T21:44:16.878Z,32.25
2023-02-11T21:46:47.145Z,30.80
2023-02-11T21:49:17.368Z,29.25
2023-02-11T21:51:49.874Z,32.88
2023-02-11T21:54:20.583Z,34.75
2023-02-11T21:56:53.301Z,29.92
2023-02-11T21:59:23.592Z,32.63
2023-02-11T22:01:53.905Z,32.50
2023-02-11T22:04:24.540Z,31.10
2023-02-11T22:06:57.667Z,33.13
2023-02-11T22:09:27.994Z,34.92
2023-02-11T22:11:58.245Z,31.65
2023-02-11T22:14:30.658Z,30.17
2023-02-11T22:17:02.337Z,31.25
2023-02-11T22:19:32.944Z,28.50
2023-02-11T22:22:05.665Z,31.40
2023-02-11T22:24:35.913Z,34.65
2023-02-11T22:27:06.191Z,33.03
2023-02-11T22:29:36.445Z,32.50
2023-02-11T22:32:06.845Z,35.40
2023-02-11T22:34:37.175Z,35.75
2023-02-11T22:37:10.253Z,34.95
2023-02-11T22:39:41.988Z,36.42
2023-02-11T22:42:12.258Z,34.13
2023-02-11T22:44:42.140Z,34.78
2023-02-11T22:47:12.321Z,35.92
2023-02-11T22:49:42.631Z,37.90
2023-02-11T22:52:16.714Z,31.58
2023-02-11T22:54:47.084Z,36.00
2023-02-11T22:57:17.296Z,39.33
2023-02-11T22:59:47.586Z,32.67
2023-02-11T23:02:17.926Z,35.92
2023-02-11T23:04:49.933Z,38.97
2023-02-11T23:07:22.869Z,39.22
2023-02-11T23:09:53.066Z,37.13
2023-02-11T23:12:23.260Z,32.83
2023-02-11T23:14:54.145Z,31.17
2023-02-11T23:17:24.601Z,32.35
2023-02-11T23:19:54.785Z,29.90
2023-02-11T23:22:27.577Z,33.30
2023-02-11T23:24:57.938Z,36.22
2023-02-11T23:27:28.108Z,31.05
2023-02-11T23:29:58.936Z,31.25
2023-02-11T23:32:29.227Z,31.00
2023-02-11T23:34:59.530Z,32.42
2023-02-11T23:37:32.451Z,37.80
2023-02-11T23:40:02.698Z,28.48
2023-02-11T23:42:32.909Z,29.20
2023-02-11T23:45:03.482Z,30.08
2023-02-11T23:47:33.673Z,29.80
2023-02-11T23:50:04.114Z,34.83
2023-02-11T23:52:37.006Z,37.85
2023-02-11T23:55:07.726Z,34.08
2023-02-11T23:57:38.001Z,41.70
